Beyne-Heusay, Belgium
Current Conditions -  °F | °C
As of 12:20 PM on Tuesday 21 Oct 2014 (Local Time) from EBLG Reporting Station
Light Rain Light Rain  
Wind Chill: 52°   Ceiling: 1500
Heat Index: 52°   Visibility: 2.9mi
Dew Point: 50°   Wind: 21mph
Humidity: 94%   Direction: 200°SSW
Pressure: 29.68"   Gusts: NA
Location:  50.62°N, 5.67°E
Report Text: EBLG 211020Z 20018KT 4700 -RA SCT011 BKN015 11/10 Q1005 TEMPO 22017G30KT 3000 SHRA BKN010
Loading
Personal Weather Stations






























Interactive Weather Map
Tropical Storm Tracking
New forecast layout! Learn more

10-Day Weather Forecast

Advertisements
Track Severe Weather on mobile